createdAt,value
2019-06-27T00:00:07.451Z,23.60
2019-06-27T00:02:35.970Z,23.60
2019-06-27T00:05:06.316Z,23.50
2019-06-27T00:07:34.871Z,23.50
2019-06-27T00:10:08.324Z,23.50
2019-06-27T00:12:36.947Z,23.40
2019-06-27T00:15:06.354Z,23.40
2019-06-27T00:17:34.905Z,23.50
2019-06-27T00:20:04.730Z,23.40
2019-06-27T00:22:33.271Z,23.40
2019-06-27T00:25:02.005Z,23.40
2019-06-27T00:27:30.563Z,23.40
2019-06-27T00:29:59.124Z,23.40
2019-06-27T00:32:27.723Z,23.30
2019-06-27T00:34:56.662Z,23.30
2019-06-27T00:37:25.238Z,23.20
2019-06-27T00:39:53.863Z,23.10
2019-06-27T00:42:22.479Z,23.10
2019-06-27T00:44:51.029Z,23.10
2019-06-27T00:47:19.650Z,23.20
2019-06-27T00:49:48.195Z,23.20
2019-06-27T00:52:16.861Z,23.10
2019-06-27T00:54:45.409Z,23.10
2019-06-27T00:57:14.929Z,23.10
2019-06-27T00:59:43.688Z,23.10
2019-06-27T01:02:12.270Z,23.00
2019-06-27T01:04:40.759Z,23.00
2019-06-27T01:07:09.334Z,22.90
2019-06-27T01:09:37.822Z,22.90
2019-06-27T01:12:06.466Z,22.80
2019-06-27T01:14:35.021Z,22.80
2019-06-27T01:17:03.682Z,22.80
2019-06-27T01:19:32.234Z,22.70
2019-06-27T01:22:00.756Z,22.70
2019-06-27T01:24:29.229Z,22.70
2019-06-27T01:26:57.721Z,22.60
2019-06-27T01:29:26.280Z,22.60
2019-06-27T01:31:54.843Z,22.60
2019-06-27T01:34:23.389Z,22.50
2019-06-27T01:36:51.991Z,22.50
2019-06-27T01:39:20.534Z,22.50
2019-06-27T01:41:49.113Z,22.40
2019-06-27T01:44:36.968Z,22.40
2019-06-27T01:47:06.535Z,22.40
2019-06-27T01:49:35.136Z,22.40
2019-06-27T01:52:03.645Z,22.50
2019-06-27T01:54:33.223Z,22.40
2019-06-27T01:57:02.260Z,22.40
2019-06-27T01:59:31.960Z,22.40
2019-06-27T02:02:00.526Z,22.30
2019-06-27T02:04:29.139Z,22.30
2019-06-27T02:06:57.672Z,22.30
2019-06-27T02:09:26.168Z,22.30
2019-06-27T02:11:54.716Z,22.30
2019-06-27T02:14:23.206Z,22.40
2019-06-27T02:16:51.676Z,22.40
2019-06-27T02:19:20.177Z,22.40
2019-06-27T02:21:48.722Z,22.40
2019-06-27T02:24:17.290Z,22.40
2019-06-27T02:26:45.833Z,22.40
2019-06-27T02:29:14.329Z,22.40
2019-06-27T02:31:42.806Z,22.30
2019-06-27T02:34:11.301Z,22.40
2019-06-27T02:36:39.851Z,22.30
2019-06-27T02:39:09.493Z,22.20
2019-06-27T02:41:38.051Z,22.20
2019-06-27T02:44:06.618Z,22.10
2019-06-27T02:46:35.175Z,22.00
2019-06-27T02:49:03.725Z,22.00
2019-06-27T02:51:33.050Z,21.90
2019-06-27T02:54:01.560Z,21.90
2019-06-27T02:56:30.095Z,21.90
2019-06-27T02:58:58.588Z,21.90
2019-06-27T03:01:27.108Z,21.90
2019-06-27T03:03:55.652Z,21.90
2019-06-27T03:06:24.337Z,21.90
2019-06-27T03:08:52.976Z,21.90
2019-06-27T03:11:21.518Z,21.80
2019-06-27T03:13:50.153Z,21.80
2019-06-27T03:16:18.705Z,21.80
2019-06-27T03:18:47.265Z,21.70
2019-06-27T03:21:15.754Z,21.70
2019-06-27T03:23:44.331Z,21.70
2019-06-27T03:26:12.888Z,21.70
2019-06-27T03:28:51.615Z,21.60
2019-06-27T03:31:11.675Z,21.60
2019-06-27T03:33:40.280Z,21.60
2019-06-27T03:36:08.911Z,21.60
2019-06-27T03:38:37.461Z,21.60
2019-06-27T03:41:06.109Z,21.60
2019-06-27T03:43:34.716Z,21.60
2019-06-27T03:46:03.214Z,21.60
2019-06-27T03:48:31.781Z,21.70
2019-06-27T03:51:00.417Z,21.80
2019-06-27T03:53:28.970Z,21.80
2019-06-27T03:55:57.537Z,21.80
2019-06-27T03:58:26.154Z,21.80
2019-06-27T04:00:54.722Z,21.80
2019-06-27T04:03:23.257Z,21.80
2019-06-27T04:05:51.834Z,21.80
2019-06-27T04:08:20.320Z,21.80
2019-06-27T04:10:48.882Z,21.80
2019-06-27T04:13:17.508Z,21.80
2019-06-27T04:15:46.076Z,21.90
2019-06-27T04:18:14.545Z,21.90
2019-06-27T04:20:43.183Z,21.90
2019-06-27T04:23:11.730Z,21.90
2019-06-27T04:25:40.298Z,22.00
2019-06-27T04:28:08.774Z,22.00
2019-06-27T04:30:37.373Z,22.00
2019-06-27T04:33:05.911Z,22.10
2019-06-27T04:35:34.541Z,22.20
2019-06-27T04:38:03.085Z,22.20
2019-06-27T04:40:31.670Z,22.20
2019-06-27T04:43:05.059Z,22.20
2019-06-27T04:45:30.504Z,22.30
2019-06-27T04:47:59.055Z,22.30
2019-06-27T04:50:27.624Z,22.30
2019-06-27T04:52:56.162Z,22.30
2019-06-27T04:55:24.744Z,22.40
2019-06-27T04:57:53.294Z,22.50
2019-06-27T05:00:27.757Z,22.60
2019-06-27T05:02:56.404Z,22.60
2019-06-27T05:05:25.014Z,22.60
2019-06-27T05:07:54.020Z,22.60
2019-06-27T05:10:22.942Z,22.70
2019-06-27T05:12:51.509Z,22.70
2019-06-27T05:15:20.086Z,22.70
2019-06-27T05:17:48.577Z,22.70
2019-06-27T05:20:17.045Z,22.60
2019-06-27T05:22:45.551Z,22.70
2019-06-27T05:25:14.088Z,22.80
2019-06-27T05:27:42.668Z,22.80
2019-06-27T05:30:11.368Z,22.70
2019-06-27T05:32:39.896Z,22.80
2019-06-27T05:35:08.508Z,22.80
2019-06-27T05:37:36.999Z,22.80
2019-06-27T05:40:09.113Z,23.00
2019-06-27T05:42:37.734Z,23.10
2019-06-27T05:45:09.369Z,23.00
2019-06-27T05:47:38.063Z,23.10
2019-06-27T05:50:07.364Z,23.20
2019-06-27T05:52:35.940Z,23.30
2019-06-27T05:55:07.102Z,23.20
2019-06-27T05:57:35.661Z,23.20
2019-06-27T06:00:07.468Z,23.30
2019-06-27T06:02:36.032Z,23.20
2019-06-27T06:05:06.019Z,23.30
2019-06-27T06:07:34.508Z,23.40
2019-06-27T06:10:03.621Z,23.50
2019-06-27T06:12:32.130Z,23.50
2019-06-27T06:15:00.594Z,23.60
2019-06-27T06:17:29.088Z,23.60
2019-06-27T06:19:57.557Z,23.80
2019-06-27T06:22:26.132Z,23.90
2019-06-27T06:24:58.051Z,23.80
2019-06-27T06:27:24.821Z,23.90
2019-06-27T06:29:53.297Z,24.00
2019-06-27T06:32:21.866Z,24.10
2019-06-27T06:34:50.768Z,24.00
2019-06-27T06:37:19.267Z,24.00
2019-06-27T06:39:47.828Z,24.10
2019-06-27T06:42:16.325Z,24.10
2019-06-27T06:44:44.791Z,24.20
2019-06-27T06:47:13.360Z,24.30
2019-06-27T06:49:41.973Z,24.40
2019-06-27T06:52:10.541Z,24.60
2019-06-27T06:54:39.088Z,24.70
2019-06-27T06:57:07.696Z,24.80
2019-06-27T06:59:36.236Z,24.90
2019-06-27T07:02:04.949Z,24.90
2019-06-27T07:04:34.058Z,24.60
2019-06-27T07:07:02.597Z,24.80
2019-06-27T07:09:31.098Z,25.00
2019-06-27T07:11:59.642Z,25.20
2019-06-27T07:14:28.220Z,25.40
2019-06-27T07:16:56.760Z,25.50
2019-06-27T07:19:25.319Z,25.50
2019-06-27T07:21:53.788Z,25.60
2019-06-27T07:24:22.284Z,25.70
2019-06-27T07:26:50.923Z,25.90
2019-06-27T07:29:19.508Z,25.90
2019-06-27T07:31:48.048Z,26.00
2019-06-27T07:34:16.549Z,26.00
2019-06-27T07:36:45.073Z,26.20
2019-06-27T07:39:13.640Z,26.00
2019-06-27T07:41:42.125Z,26.10
2019-06-27T07:44:10.696Z,26.30
2019-06-27T07:46:39.277Z,26.10
2019-06-27T07:49:07.814Z,26.10
2019-06-27T07:51:36.361Z,26.30
2019-06-27T07:54:04.988Z,26.50
2019-06-27T07:56:33.524Z,26.70
2019-06-27T07:59:02.009Z,26.70
2019-06-27T08:01:35.537Z,26.70
2019-06-27T08:04:00.831Z,26.80
2019-06-27T08:06:29.293Z,26.90
2019-06-27T08:08:57.780Z,26.90
2019-06-27T08:11:26.244Z,26.70
2019-06-27T08:13:54.748Z,26.70
2019-06-27T08:16:23.304Z,27.00
2019-06-27T08:18:51.850Z,27.10
2019-06-27T08:21:20.321Z,27.10
2019-06-27T08:23:48.885Z,27.10
2019-06-27T08:26:17.347Z,27.40
2019-06-27T08:28:45.920Z,27.50
2019-06-27T08:31:15.288Z,27.50
2019-06-27T08:33:43.886Z,27.70
2019-06-27T08:36:12.407Z,27.50
2019-06-27T08:38:40.953Z,27.70
2019-06-27T08:41:09.500Z,27.70
2019-06-27T08:43:38.068Z,27.80
2019-06-27T08:46:06.605Z,28.00
2019-06-27T08:48:35.148Z,27.80
2019-06-27T08:51:03.846Z,27.90
2019-06-27T08:53:32.385Z,28.00
2019-06-27T08:56:00.948Z,28.10
2019-06-27T08:58:29.490Z,28.30
2019-06-27T09:00:58.053Z,28.50
2019-06-27T09:03:26.589Z,28.70
2019-06-27T09:05:55.149Z,28.30
2019-06-27T09:08:23.811Z,28.50
2019-06-27T09:10:52.380Z,28.70
2019-06-27T09:13:20.848Z,28.90
2019-06-27T09:15:49.413Z,29.10
2019-06-27T09:18:17.944Z,29.40
2019-06-27T09:20:46.441Z,29.70
2019-06-27T09:23:14.901Z,29.80
2019-06-27T09:25:43.628Z,29.80
2019-06-27T09:28:12.498Z,29.80
2019-06-27T09:30:41.029Z,29.30
2019-06-27T09:33:09.567Z,29.50
2019-06-27T09:35:38.124Z,29.60
2019-06-27T09:38:06.585Z,29.70
2019-06-27T09:40:35.145Z,29.80
2019-06-27T09:43:03.701Z,30.10
2019-06-27T09:45:32.696Z,30.50
2019-06-27T09:48:01.173Z,30.70
2019-06-27T09:50:29.728Z,30.60
2019-06-27T09:52:58.256Z,31.00
2019-06-27T09:55:26.814Z,30.70
2019-06-27T09:57:55.642Z,30.30
2019-06-27T10:00:24.545Z,30.50
2019-06-27T10:02:53.177Z,30.70
2019-06-27T10:05:21.744Z,30.90
2019-06-27T10:07:50.283Z,31.50
2019-06-27T10:10:18.980Z,31.70
2019-06-27T10:12:47.513Z,31.10
2019-06-27T10:15:16.250Z,31.50
2019-06-27T10:17:44.783Z,31.80
2019-06-27T10:20:14.648Z,31.90
2019-06-27T10:22:43.108Z,32.30
2019-06-27T10:25:12.208Z,32.00
2019-06-27T10:27:40.716Z,32.60
2019-06-27T10:30:10.128Z,32.80
2019-06-27T10:32:38.691Z,33.30
2019-06-27T10:35:08.465Z,33.60
2019-06-27T10:37:37.155Z,33.90
2019-06-27T10:40:08.516Z,34.00
2019-06-27T10:42:37.074Z,33.50
2019-06-27T10:45:09.096Z,33.10
2019-06-27T10:47:37.824Z,33.90
2019-06-27T10:50:06.729Z,33.50
2019-06-27T10:52:35.293Z,34.10
2019-06-27T10:55:05.305Z,34.90
2019-06-27T10:57:33.866Z,35.30
2019-06-27T11:00:02.572Z,35.40
2019-06-27T11:02:31.117Z,36.00
2019-06-27T11:04:59.661Z,36.30
2019-06-27T11:07:28.225Z,36.70
2019-06-27T11:09:56.761Z,36.40
2019-06-27T11:12:25.261Z,36.70
2019-06-27T11:14:59.352Z,37.00
2019-06-27T11:17:24.002Z,36.60
2019-06-27T11:19:52.961Z,36.00
2019-06-27T11:22:21.708Z,36.50
2019-06-27T11:24:50.178Z,37.30
2019-06-27T11:27:18.730Z,35.70
2019-06-27T11:29:47.261Z,36.00
2019-06-27T11:32:15.768Z,36.20
2019-06-27T11:34:44.302Z,36.00
2019-06-27T11:37:12.880Z,36.10
2019-06-27T11:39:41.432Z,35.80
2019-06-27T11:42:10.001Z,35.20
2019-06-27T11:44:38.539Z,35.30
2019-06-27T11:47:07.105Z,35.10
2019-06-27T11:49:35.643Z,34.80
2019-06-27T11:52:04.140Z,35.10
2019-06-27T11:54:32.672Z,34.70
2019-06-27T11:57:01.131Z,34.60
2019-06-27T11:59:29.695Z,34.80
2019-06-27T12:01:58.162Z,34.90
2019-06-27T12:04:26.725Z,34.50
2019-06-27T12:06:56.132Z,33.90
2019-06-27T12:09:24.623Z,33.70
2019-06-27T12:11:53.184Z,33.00
2019-06-27T12:14:21.748Z,32.80
2019-06-27T12:16:50.239Z,33.10
2019-06-27T12:19:18.816Z,33.20
2019-06-27T12:21:47.372Z,32.90
2019-06-27T12:24:16.687Z,32.80
2019-06-27T12:26:45.220Z,33.20
2019-06-27T12:29:13.783Z,33.10
2019-06-27T12:31:42.251Z,33.30
2019-06-27T12:34:10.755Z,33.00
2019-06-27T12:36:39.225Z,32.90
2019-06-27T12:39:07.792Z,33.00
2019-06-27T12:41:36.333Z,33.50
2019-06-27T12:44:04.819Z,33.40
2019-06-27T12:46:33.359Z,33.30
2019-06-27T12:49:01.928Z,32.70
2019-06-27T12:51:31.159Z,33.00
2019-06-27T12:53:59.726Z,33.00
2019-06-27T12:56:28.252Z,32.90
2019-06-27T12:58:56.787Z,33.20
2019-06-27T13:01:25.353Z,33.10
2019-06-27T13:03:53.905Z,32.90
2019-06-27T13:06:22.449Z,32.90
2019-06-27T13:08:51.076Z,33.40
2019-06-27T13:11:19.610Z,33.50
2019-06-27T13:13:48.200Z,33.50
2019-06-27T13:16:16.741Z,33.20
2019-06-27T13:18:45.299Z,33.30
2019-06-27T13:21:13.865Z,33.50
2019-06-27T13:23:42.397Z,33.70
2019-06-27T13:26:10.935Z,33.70
2019-06-27T13:28:39.529Z,33.70
2019-06-27T13:31:08.137Z,33.70
2019-06-27T13:33:36.712Z,33.90
2019-06-27T13:36:05.312Z,34.00
2019-06-27T13:38:33.784Z,34.20
2019-06-27T13:41:02.678Z,35.40
2019-06-27T13:43:31.288Z,35.70
2019-06-27T13:45:59.777Z,36.60
2019-06-27T13:48:28.308Z,37.60
2019-06-27T13:50:57.938Z,38.10
2019-06-27T13:53:26.573Z,37.70
2019-06-27T13:55:55.107Z,38.50
2019-06-27T13:58:23.606Z,37.70
2019-06-27T14:00:52.209Z,37.60
2019-06-27T14:03:20.673Z,38.00
2019-06-27T14:05:49.162Z,39.00
2019-06-27T14:08:17.709Z,39.50
2019-06-27T14:10:46.272Z,39.50
2019-06-27T14:13:14.888Z,39.50
2019-06-27T14:15:43.454Z,38.70
2019-06-27T14:18:11.996Z,38.70
2019-06-27T14:20:40.551Z,38.90
2019-06-27T14:23:09.023Z,39.70
2019-06-27T14:25:37.591Z,38.70
2019-06-27T14:28:06.172Z,38.90
2019-06-27T14:30:34.701Z,39.30
2019-06-27T14:33:03.239Z,38.10
2019-06-27T14:35:31.724Z,37.30
2019-06-27T14:38:00.187Z,35.10
2019-06-27T14:40:28.916Z,34.20
2019-06-27T14:42:57.382Z,34.20
2019-06-27T14:45:26.194Z,33.70
2019-06-27T14:47:55.728Z,33.60
2019-06-27T14:50:24.277Z,33.20
2019-06-27T14:52:52.851Z,32.50
2019-06-27T14:55:21.923Z,32.70
2019-06-27T14:57:50.412Z,33.00
2019-06-27T15:00:19.304Z,33.50
2019-06-27T15:02:47.792Z,33.30
2019-06-27T15:05:31.314Z,33.40
2019-06-27T15:07:47.242Z,33.00
2019-06-27T15:10:16.146Z,33.00
2019-06-27T15:12:56.553Z,33.10
2019-06-27T15:15:15.217Z,32.70
2019-06-27T15:17:43.701Z,32.40
2019-06-27T15:20:12.330Z,32.30
2019-06-27T15:22:40.869Z,32.30
2019-06-27T15:25:09.844Z,32.30
2019-06-27T15:27:38.332Z,31.80
2019-06-27T15:30:07.434Z,32.20
2019-06-27T15:32:36.060Z,32.20
2019-06-27T15:35:08.400Z,32.30
2019-06-27T15:37:36.883Z,32.40
2019-06-27T15:40:07.371Z,32.20
2019-06-27T15:42:35.924Z,31.80
2019-06-27T15:45:08.334Z,31.70
2019-06-27T15:47:36.860Z,31.60
2019-06-27T15:50:06.759Z,31.40
2019-06-27T15:52:35.324Z,31.40
2019-06-27T15:55:05.673Z,31.30
2019-06-27T15:57:34.232Z,30.90
2019-06-27T16:00:02.972Z,30.80
2019-06-27T16:02:31.668Z,30.70
2019-06-27T16:05:00.132Z,30.60
2019-06-27T16:07:29.985Z,30.50
2019-06-27T16:09:58.656Z,30.50
2019-06-27T16:12:27.132Z,30.40
2019-06-27T16:14:55.769Z,30.40
2019-06-27T16:17:24.300Z,30.20
2019-06-27T16:19:52.789Z,30.10
2019-06-27T16:22:21.320Z,30.10
2019-06-27T16:24:49.825Z,30.00
2019-06-27T16:27:18.370Z,30.00
2019-06-27T16:29:47.804Z,30.00
2019-06-27T16:32:16.313Z,29.90
2019-06-27T16:34:44.870Z,29.90
2019-06-27T16:37:13.332Z,29.70
2019-06-27T16:39:41.821Z,29.60
2019-06-27T16:42:10.426Z,29.50
2019-06-27T16:44:39.022Z,29.40
2019-06-27T16:47:07.600Z,29.30
2019-06-27T16:49:36.084Z,29.20
2019-06-27T16:52:04.690Z,29.20
2019-06-27T16:54:33.258Z,29.00
2019-06-27T16:57:01.800Z,28.90
2019-06-27T16:59:30.357Z,28.90
2019-06-27T17:01:58.895Z,28.90
2019-06-27T17:04:27.449Z,28.80
2019-06-27T17:06:55.909Z,28.60
2019-06-27T17:09:24.478Z,28.50
2019-06-27T17:11:53.009Z,28.40
2019-06-27T17:14:21.496Z,28.40
2019-06-27T17:16:49.968Z,28.30
2019-06-27T17:19:18.537Z,28.20
2019-06-27T17:21:46.995Z,28.10
2019-06-27T17:24:15.550Z,28.10
2019-06-27T17:26:44.038Z,28.00
2019-06-27T17:29:12.588Z,27.90
2019-06-27T17:31:41.134Z,27.90
2019-06-27T17:34:09.691Z,27.80
2019-06-27T17:36:38.249Z,27.70
2019-06-27T17:39:07.041Z,27.70
2019-06-27T17:41:35.632Z,27.70
2019-06-27T17:44:04.196Z,27.70
2019-06-27T17:46:32.741Z,27.60
2019-06-27T17:49:01.205Z,27.50
2019-06-27T17:51:29.704Z,27.40
2019-06-27T17:53:58.183Z,27.30
2019-06-27T17:56:26.749Z,27.20
2019-06-27T17:58:55.352Z,27.10
2019-06-27T18:01:23.871Z,27.00
2019-06-27T18:03:52.351Z,27.00
2019-06-27T18:06:20.932Z,26.90
2019-06-27T18:08:49.392Z,26.80
2019-06-27T18:11:17.900Z,26.60
2019-06-27T18:13:46.429Z,26.60
2019-06-27T18:16:14.935Z,26.50
2019-06-27T18:18:43.471Z,26.40
2019-06-27T18:21:12.024Z,26.30
2019-06-27T18:23:40.569Z,26.30
2019-06-27T18:26:09.128Z,26.30
2019-06-27T18:28:37.585Z,26.20
2019-06-27T18:31:06.228Z,26.10
2019-06-27T18:33:34.762Z,26.00
2019-06-27T18:36:03.375Z,25.90
2019-06-27T18:38:31.891Z,25.90
2019-06-27T18:41:00.380Z,25.70
2019-06-27T18:43:28.935Z,25.60
2019-06-27T18:45:57.427Z,25.50
2019-06-27T18:48:25.959Z,25.40
2019-06-27T18:50:54.447Z,25.30
2019-06-27T18:53:23.035Z,25.20
2019-06-27T18:55:51.561Z,25.10
2019-06-27T18:58:20.047Z,25.00
2019-06-27T19:00:48.546Z,24.90
2019-06-27T19:03:17.085Z,24.90
2019-06-27T19:05:45.645Z,24.70
2019-06-27T19:08:14.208Z,24.60
2019-06-27T19:10:42.769Z,24.50
2019-06-27T19:13:11.304Z,24.40
2019-06-27T19:15:39.789Z,24.40
2019-06-27T19:18:10.046Z,24.30
2019-06-27T19:20:40.252Z,24.30
2019-06-27T19:23:10.428Z,24.20
2019-06-27T19:25:40.545Z,24.20
2019-06-27T19:28:09.156Z,24.10
2019-06-27T19:30:37.741Z,24.10
2019-06-27T19:33:06.284Z,24.00
2019-06-27T19:35:34.844Z,23.90
2019-06-27T19:38:03.393Z,23.90
2019-06-27T19:40:31.894Z,23.80
2019-06-27T19:43:00.461Z,23.80
2019-06-27T19:45:29.082Z,23.70
2019-06-27T19:47:57.668Z,23.60
2019-06-27T19:50:26.150Z,23.60
2019-06-27T19:52:54.700Z,23.50
2019-06-27T19:55:23.236Z,23.40
2019-06-27T19:57:51.812Z,23.40
2019-06-27T20:00:21.072Z,23.30
2019-06-27T20:02:49.636Z,23.20
2019-06-27T20:05:18.116Z,23.10
2019-06-27T20:07:46.678Z,23.00
2019-06-27T20:10:15.603Z,22.80
2019-06-27T20:12:44.163Z,22.70
2019-06-27T20:15:12.772Z,22.60
2019-06-27T20:17:41.333Z,22.60
2019-06-27T20:20:10.141Z,22.40
2019-06-27T20:22:38.641Z,22.40
2019-06-27T20:25:07.712Z,22.30
2019-06-27T20:27:36.269Z,22.30
2019-06-27T20:30:07.078Z,22.30
2019-06-27T20:32:35.637Z,22.20
2019-06-27T20:35:08.048Z,22.20
2019-06-27T20:37:36.612Z,22.10
2019-06-27T20:40:09.246Z,22.00
2019-06-27T20:42:37.759Z,21.90
2019-06-27T20:45:08.061Z,21.80
2019-06-27T20:47:36.691Z,21.70
2019-06-27T20:50:06.979Z,21.70
2019-06-27T20:52:35.608Z,21.60
2019-06-27T20:55:05.110Z,21.50
2019-06-27T20:57:33.615Z,21.40
2019-06-27T21:00:02.152Z,21.40
2019-06-27T21:02:30.801Z,21.30
2019-06-27T21:04:59.316Z,21.20
2019-06-27T21:07:27.871Z,21.20
2019-06-27T21:09:56.643Z,21.20
2019-06-27T21:12:25.211Z,21.10
2019-06-27T21:14:53.783Z,21.10
2019-06-27T21:17:22.309Z,21.10
2019-06-27T21:19:50.793Z,21.00
2019-06-27T21:22:19.336Z,21.00
2019-06-27T21:24:47.984Z,20.90
2019-06-27T21:27:16.515Z,20.80
2019-06-27T21:29:45.000Z,20.70
2019-06-27T21:32:30.182Z,20.70
2019-06-27T21:34:43.792Z,20.60
2019-06-27T21:37:12.305Z,20.60
2019-06-27T21:39:40.800Z,20.50
2019-06-27T21:42:09.333Z,20.40
2019-06-27T21:44:37.904Z,20.30
2019-06-27T21:47:06.377Z,20.30
2019-06-27T21:49:34.959Z,20.20
2019-06-27T21:52:03.492Z,20.10
2019-06-27T21:54:32.071Z,20.10
2019-06-27T21:57:00.541Z,20.10
2019-06-27T21:59:29.028Z,20.00
2019-06-27T22:01:57.588Z,20.00
2019-06-27T22:04:26.290Z,19.90
2019-06-27T22:06:54.988Z,19.90
2019-06-27T22:09:25.318Z,19.80
2019-06-27T22:11:53.757Z,19.70
2019-06-27T22:14:22.353Z,19.50
2019-06-27T22:16:50.858Z,19.40
2019-06-27T22:19:19.416Z,19.40
2019-06-27T22:21:47.952Z,19.40
2019-06-27T22:24:16.509Z,19.40
2019-06-27T22:26:44.979Z,19.30
2019-06-27T22:29:13.547Z,19.20
2019-06-27T22:31:42.083Z,19.20
2019-06-27T22:34:10.723Z,19.20
2019-06-27T22:36:39.341Z,19.10
2019-06-27T22:39:39.588Z,19.10
2019-06-27T22:42:14.147Z,19.00
2019-06-27T22:45:00.466Z,19.00
2019-06-27T22:47:46.951Z,19.00
2019-06-27T22:50:21.853Z,18.90
2019-06-27T22:52:55.020Z,18.80
2019-06-27T22:55:25.225Z,18.70
2019-06-27T22:57:53.692Z,18.60
2019-06-27T23:00:22.419Z,18.50
2019-06-27T23:02:50.884Z,18.40
2019-06-27T23:05:19.452Z,18.30
2019-06-27T23:07:47.920Z,18.30
2019-06-27T23:10:16.408Z,18.20
2019-06-27T23:12:44.957Z,18.20
2019-06-27T23:15:13.716Z,18.20
2019-06-27T23:17:42.236Z,18.20
2019-06-27T23:20:10.951Z,18.20
2019-06-27T23:22:39.504Z,18.10
2019-06-27T23:25:10.495Z,18.10
2019-06-27T23:27:39.043Z,18.10
2019-06-27T23:30:08.898Z,18.10
2019-06-27T23:32:37.444Z,18.20
2019-06-27T23:35:06.143Z,18.20
2019-06-27T23:37:34.675Z,18.20
2019-06-27T23:40:13.894Z,18.10
2019-06-27T23:42:34.503Z,18.10
2019-06-27T23:45:03.020Z,18.00
2019-06-27T23:47:31.553Z,17.90
2019-06-27T23:50:00.053Z,17.90
2019-06-27T23:52:28.602Z,17.80
2019-06-27T23:54:57.244Z,17.60
2019-06-27T23:57:25.746Z,17.50
2019-06-27T23:59:54.312Z,17.50
